createdAt,value
2023-03-17T00:01:00.179Z,10.57
2023-03-17T00:06:04.934Z,9.70
2023-03-17T00:11:16.230Z,7.57
2023-03-17T00:16:25.546Z,7.77
2023-03-17T00:21:31.028Z,8.27
2023-03-17T00:26:33.764Z,8.80
2023-03-17T00:31:36.774Z,6.93
2023-03-17T00:36:39.471Z,9.55
2023-03-17T00:41:42.708Z,7.67
2023-03-17T00:46:46.677Z,6.72
2023-03-17T00:51:50.042Z,6.72
2023-03-17T00:56:52.876Z,8.83
2023-03-17T01:01:56.546Z,10.13
2023-03-17T01:06:59.493Z,8.53
2023-03-17T01:12:02.095Z,8.70
2023-03-17T01:17:06.416Z,10.35
2023-03-17T01:22:09.941Z,10.87
2023-03-17T01:27:12.718Z,12.70
2023-03-17T01:32:15.232Z,8.90
2023-03-17T01:37:17.712Z,9.88
2023-03-17T01:42:21.103Z,9.70
2023-03-17T01:47:26.504Z,9.50
2023-03-17T01:52:29.787Z,11.48
2023-03-17T01:57:41.533Z,12.23
2023-03-17T02:02:50.453Z,9.43
2023-03-17T02:07:54.689Z,11.40
2023-03-17T02:13:05.946Z,9.10
2023-03-17T02:18:10.189Z,9.85
2023-03-17T02:23:17.119Z,10.33
2023-03-17T02:28:26.345Z,10.02
2023-03-17T02:33:29.138Z,10.18
2023-03-17T02:38:32.156Z,9.97
2023-03-17T02:43:37.513Z,12.20
2023-03-17T02:48:40.896Z,8.40
2023-03-17T02:53:43.558Z,12.50
2023-03-17T02:58:46.612Z,12.18
2023-03-17T03:03:49.309Z,11.83
2023-03-17T03:08:52.415Z,11.77
2023-03-17T03:13:55.070Z,9.80
2023-03-17T03:18:57.742Z,9.38
2023-03-17T03:24:00.523Z,10.32
2023-03-17T03:29:03.399Z,8.00
2023-03-17T03:34:06.078Z,6.00
2023-03-17T03:39:11.009Z,5.87
2023-03-17T03:44:15.119Z,5.25
2023-03-17T03:49:17.908Z,3.63
2023-03-17T03:54:20.706Z,3.27
2023-03-17T03:59:23.294Z,5.68
2023-03-17T04:04:26.128Z,3.67
2023-03-17T04:09:28.705Z,4.57
2023-03-17T04:14:31.428Z,3.92
2023-03-17T04:19:34.304Z,3.50
2023-03-17T04:24:37.325Z,3.72
2023-03-17T04:29:39.855Z,3.93
2023-03-17T04:34:43.094Z,4.75
2023-03-17T04:39:45.743Z,4.13
2023-03-17T04:44:48.518Z,3.57
2023-03-17T04:49:51.165Z,5.32
2023-03-17T04:54:54.018Z,4.47
2023-03-17T04:59:57.874Z,4.47
2023-03-17T05:05:00.589Z,2.60
2023-03-17T05:10:03.164Z,2.90
2023-03-17T05:15:06.868Z,1.15
2023-03-17T05:20:10.908Z,3.73
2023-03-17T05:25:13.498Z,3.88
2023-03-17T05:30:16.188Z,4.63
2023-03-17T05:35:19.224Z,6.70
2023-03-17T05:40:23.816Z,7.10
2023-03-17T05:45:26.924Z,6.50
2023-03-17T05:50:29.962Z,7.65
2023-03-17T05:55:32.791Z,8.15
2023-03-17T06:00:35.865Z,8.17
2023-03-17T06:05:38.810Z,9.93
2023-03-17T06:10:42.731Z,8.90
2023-03-17T06:15:48.382Z,6.47
2023-03-17T06:20:51.393Z,7.10
2023-03-17T06:25:54.012Z,7.53
2023-03-17T06:30:56.819Z,10.27
2023-03-17T06:36:00.307Z,9.30
2023-03-17T06:41:03.617Z,7.43
2023-03-17T06:46:07.720Z,9.20
2023-03-17T06:51:11.446Z,7.80
2023-03-17T06:56:28.892Z,10.85
2023-03-17T07:01:32.669Z,9.17
2023-03-17T07:06:35.708Z,8.30
2023-03-17T07:11:39.474Z,10.07
2023-03-17T07:16:42.152Z,8.57
2023-03-17T07:21:46.907Z,10.07
2023-03-17T07:26:50.079Z,9.70
2023-03-17T07:31:53.379Z,10.60
2023-03-17T07:36:56.306Z,10.07
2023-03-17T07:41:59.380Z,9.03
2023-03-17T07:47:02.108Z,9.93
2023-03-17T07:52:05.418Z,10.23
2023-03-17T07:57:08.196Z,9.10
2023-03-17T08:02:16.868Z,10.40
2023-03-17T08:07:19.865Z,9.47
2023-03-17T08:12:22.458Z,8.52
2023-03-17T08:17:27.641Z,8.23
2023-03-17T08:22:30.622Z,8.68
2023-03-17T08:27:34.046Z,8.75
2023-03-17T08:32:37.279Z,7.47
2023-03-17T08:37:40.084Z,6.65
2023-03-17T08:42:43.382Z,6.97
2023-03-17T08:47:47.961Z,6.40
2023-03-17T08:52:52.256Z,5.90
2023-03-17T08:57:54.998Z,4.30
2023-03-17T09:02:58.751Z,4.55
2023-03-17T09:08:01.509Z,3.63
2023-03-17T09:13:05.096Z,3.40
2023-03-17T09:18:09.337Z,3.38
2023-03-17T09:23:13.091Z,3.03
2023-03-17T09:28:16.305Z,3.28
2023-03-17T09:33:19.975Z,2.57
2023-03-17T09:38:24.058Z,2.55
2023-03-17T09:43:41.798Z,2.75
2023-03-17T09:48:55.556Z,2.40
2023-03-17T09:54:03.693Z,2.55
2023-03-17T09:59:15.654Z,3.10
2023-03-17T10:04:19.052Z,3.05
2023-03-17T10:09:37.879Z,2.53
2023-03-17T10:14:43.690Z,2.93
2023-03-17T10:20:01.404Z,3.33
2023-03-17T10:25:17.320Z,3.03
2023-03-17T10:30:23.787Z,3.28
2023-03-17T10:35:27.000Z,3.40
2023-03-17T10:40:31.969Z,2.83
2023-03-17T10:45:44.087Z,3.00
2023-03-17T10:50:49.587Z,3.47
2023-03-17T10:55:53.645Z,3.17
2023-03-17T11:01:20.517Z,3.20
2023-03-17T11:06:34.496Z,2.30
2023-03-17T11:11:46.979Z,3.20
2023-03-17T11:17:00.427Z,2.43
2023-03-17T11:22:14.451Z,2.85
2023-03-17T11:27:36.474Z,3.30
2023-03-17T11:32:56.764Z,2.90
2023-03-17T11:38:14.281Z,3.20
2023-03-17T11:43:29.691Z,3.00
2023-03-17T11:48:55.398Z,3.05
2023-03-17T11:54:18.645Z,3.05
2023-03-17T11:59:37.931Z,3.03
2023-03-17T12:05:06.164Z,2.95
2023-03-17T12:10:36.684Z,2.40
2023-03-17T12:15:45.835Z,2.92
2023-03-17T12:21:01.935Z,3.05
2023-03-17T12:26:11.378Z,2.67
2023-03-17T12:31:25.653Z,2.13
2023-03-17T12:36:29.702Z,2.90
2023-03-17T12:42:11.241Z,2.92
2023-03-17T12:47:19.943Z,3.15
2023-03-17T12:52:35.001Z,3.00
2023-03-17T12:57:44.059Z,2.70
2023-03-17T13:02:51.265Z,2.40
2023-03-17T13:07:57.502Z,2.10
2023-03-17T13:13:23.597Z,2.45
2023-03-17T13:18:35.688Z,2.93
2023-03-17T13:23:53.720Z,3.05
2023-03-17T13:29:03.644Z,3.00
2023-03-17T13:34:28.422Z,3.10
2023-03-17T13:40:10.844Z,3.15
2023-03-17T13:45:37.763Z,3.03
2023-03-17T13:50:41.232Z,2.80
2023-03-17T13:56:23.435Z,2.93
2023-03-17T14:01:28.862Z,3.08
2023-03-17T14:06:32.144Z,3.17
2023-03-17T14:11:42.220Z,3.23
2023-03-17T14:17:02.650Z,2.60
2023-03-17T14:22:21.099Z,3.30
2023-03-17T14:27:25.286Z,3.08
2023-03-17T14:32:28.028Z,2.88
2023-03-17T14:37:30.929Z,1.73
2023-03-17T14:42:33.851Z,3.30
2023-03-17T14:47:45.865Z,3.00
2023-03-17T14:52:50.702Z,2.60
2023-03-17T14:57:53.861Z,3.28
2023-03-17T15:02:59.294Z,3.10
2023-03-17T15:08:02.868Z,3.13
2023-03-17T15:13:07.426Z,3.10
2023-03-17T15:18:15.765Z,2.88
2023-03-17T15:23:25.355Z,3.00
2023-03-17T15:28:32.132Z,2.20
2023-03-17T15:33:41.601Z,2.97
2023-03-17T15:38:45.162Z,3.10
2023-03-17T15:43:48.283Z,2.78
2023-03-17T15:48:51.343Z,2.20
2023-03-17T15:53:53.978Z,2.30
2023-03-17T15:58:56.937Z,2.88
2023-03-17T16:03:59.666Z,3.00
2023-03-17T16:09:02.580Z,2.50
2023-03-17T16:14:05.386Z,2.63
2023-03-17T16:19:16.236Z,2.60
2023-03-17T16:24:22.105Z,2.88
2023-03-17T16:29:24.821Z,3.10
2023-03-17T16:34:27.661Z,3.72
2023-03-17T16:39:30.957Z,3.15
2023-03-17T16:44:33.776Z,4.33
2023-03-17T16:49:36.628Z,2.88
2023-03-17T16:54:40.964Z,3.90
2023-03-17T16:59:43.833Z,4.25
2023-03-17T17:04:46.632Z,4.43
2023-03-17T17:09:49.284Z,4.33
2023-03-17T17:14:51.973Z,5.70
2023-03-17T17:19:54.726Z,4.40
2023-03-17T17:24:57.488Z,5.82
2023-03-17T17:30:00.689Z,6.43
2023-03-17T17:35:03.723Z,6.57
2023-03-17T17:40:09.583Z,6.80
2023-03-17T17:45:12.807Z,6.37
2023-03-17T17:50:27.711Z,5.97
2023-03-17T17:55:30.490Z,5.82
2023-03-17T18:00:33.744Z,6.27
2023-03-17T18:05:37.138Z,6.13
2023-03-17T18:10:40.250Z,6.07
2023-03-17T18:15:43.268Z,6.45
2023-03-17T18:20:46.357Z,7.03
2023-03-17T18:25:49.806Z,6.67
2023-03-17T18:30:53.311Z,6.50
2023-03-17T18:35:56.344Z,6.63
2023-03-17T18:40:59.342Z,7.00
2023-03-17T18:46:02.125Z,6.60
2023-03-17T18:51:06.126Z,7.83
2023-03-17T18:56:09.518Z,9.07
2023-03-17T19:01:12.417Z,9.23
2023-03-17T19:06:18.074Z,8.52
2023-03-17T19:11:21.914Z,7.95
2023-03-17T19:16:29.331Z,7.80
2023-03-17T19:21:32.990Z,7.10
2023-03-17T19:26:35.790Z,7.33
2023-03-17T19:31:45.457Z,5.55
2023-03-17T19:36:48.811Z,5.68
2023-03-17T19:41:55.463Z,6.33
2023-03-17T19:46:58.119Z,6.40
2023-03-17T19:52:01.757Z,6.67
2023-03-17T19:57:05.658Z,6.13
2023-03-17T20:02:08.905Z,7.30
2023-03-17T20:07:12.233Z,6.10
2023-03-17T20:12:15.581Z,7.68
2023-03-17T20:17:18.559Z,7.00
2023-03-17T20:22:21.580Z,6.70
2023-03-17T20:27:25.080Z,6.55
2023-03-17T20:32:28.115Z,7.57
2023-03-17T20:37:31.170Z,8.02
2023-03-17T20:42:34.212Z,7.07
2023-03-17T20:47:37.744Z,7.05
2023-03-17T20:52:42.205Z,7.18
2023-03-17T20:57:49.775Z,6.87
2023-03-17T21:02:53.461Z,7.25
2023-03-17T21:07:57.145Z,8.30
2023-03-17T21:12:59.780Z,8.82
2023-03-17T21:18:02.637Z,8.82
2023-03-17T21:23:08.061Z,8.37
2023-03-17T21:28:11.434Z,9.02
2023-03-17T21:33:14.243Z,8.17
2023-03-17T21:38:17.195Z,7.63
2023-03-17T21:43:20.041Z,7.45
2023-03-17T21:48:22.813Z,8.00
2023-03-17T21:53:26.154Z,7.65
2023-03-17T21:58:28.836Z,7.60
2023-03-17T22:03:32.542Z,8.13
2023-03-17T22:08:35.840Z,7.75
2023-03-17T22:13:38.484Z,8.27
2023-03-17T22:18:42.050Z,7.45
2023-03-17T22:23:44.611Z,6.23
2023-03-17T22:28:48.597Z,8.15
2023-03-17T22:33:53.474Z,8.05
2023-03-17T22:38:57.184Z,7.53
2023-03-17T22:43:59.672Z,8.23
2023-03-17T22:49:02.578Z,8.47
2023-03-17T22:54:05.252Z,6.75
2023-03-17T22:59:07.861Z,8.45
2023-03-17T23:04:10.569Z,9.20
2023-03-17T23:09:13.725Z,8.52
2023-03-17T23:14:16.506Z,7.60
2023-03-17T23:19:19.768Z,7.07
2023-03-17T23:24:22.423Z,7.72
2023-03-17T23:29:25.138Z,6.73
2023-03-17T23:34:27.794Z,8.05
2023-03-17T23:39:30.616Z,7.90
2023-03-17T23:44:33.425Z,8.57
2023-03-17T23:49:36.604Z,7.45
2023-03-17T23:54:40.005Z,9.00
2023-03-17T23:59:43.572Z,8.90
